Time;durP1;ratioP1;P1;durP2;ratioP2;P2;SDS_P1;SDS_P2;PMS_P1;PMS_P2;Temp;Humidity;BMP_temperature;BMP_pressure;BME280_temperature;BME280_humidity;BME280_pressure;Samples;Min_cycle;Max_cycle;Signal;HPM_P1;HPM_P2
2023/06/05 00:01:35;;;;;;;0.97;0.77;;;11.10;59.40;11.00;101106.00;;;;5008264;27;93107;-68
2023/06/05 00:04:02;;;;;;;1.20;1.10;;;11.00;59.50;10.90;101110.00;;;;5001031;27;113506;-68
2023/06/05 00:06:28;;;;;;;1.17;0.93;;;11.00;59.70;10.90;101103.00;;;;5005149;27;92993;-68
2023/06/05 00:08:54;;;;;;;1.23;1.03;;;11.00;59.80;10.90;101108.00;;;;5005466;27;92923;-67
2023/06/05 00:11:20;;;;;;;1.33;1.13;;;10.90;59.90;10.80;101110.00;;;;5006093;27;123957;-67
2023/06/05 00:13:46;;;;;;;1.13;0.93;;;10.90;60.00;10.80;101112.00;;;;5002105;27;94831;-70
2023/06/05 00:16:11;;;;;;;0.97;0.73;;;10.80;60.20;10.70;101094.00;;;;5003012;27;92785;-69
2023/06/05 00:18:37;;;;;;;0.93;0.80;;;10.80;60.40;10.70;101094.00;;;;5004081;27;108888;-68
2023/06/05 00:21:03;;;;;;;0.60;0.60;;;10.80;60.70;10.60;101096.00;;;;5002743;27;123422;-68
2023/06/05 00:23:29;;;;;;;1.30;0.97;;;10.70;60.90;10.50;101089.00;;;;4984371;27;93106;-68
2023/06/05 00:25:57;;;;;;;1.33;1.10;;;10.60;61.20;10.50;101094.00;;;;5003223;27;108343;-68
2023/06/05 00:28:24;;;;;;;1.30;1.00;;;10.60;61.40;10.50;101094.00;;;;4986291;27;99436;-68
2023/06/05 00:30:49;;;;;;;0.70;0.60;;;10.50;61.60;10.40;101082.00;;;;4991539;27;93008;-68
2023/06/05 00:33:15;;;;;;;1.33;0.80;;;10.50;62.00;10.40;101083.00;;;;5001644;27;121491;-68
2023/06/05 00:35:41;;;;;;;1.43;1.33;;;10.40;62.10;10.30;101087.00;;;;5005625;27;111297;-69
2023/06/05 00:38:07;;;;;;;1.43;1.17;;;10.40;62.40;10.30;101093.00;;;;4993805;27;106825;-68
2023/06/05 00:40:33;;;;;;;0.90;0.87;;;10.40;62.70;10.20;101084.00;;;;5002900;27;93820;-68
2023/06/05 00:42:58;;;;;;;1.03;0.80;;;10.30;63.20;10.20;101080.00;;;;5004704;27;122042;-68
2023/06/05 00:45:27;;;;;;;1.00;0.90;;;10.20;63.40;10.10;101082.00;;;;5000619;27;108542;-69
2023/06/05 00:47:54;;;;;;;1.33;0.97;;;10.20;63.70;10.10;101084.00;;;;4992247;27;93062;-69
2023/06/05 00:50:21;;;;;;;1.13;1.03;;;10.20;63.80;10.10;101083.00;;;;4994078;27;93101;-69
2023/06/05 00:52:48;;;;;;;1.10;1.00;;;10.20;64.00;10.10;101087.00;;;;5004182;27;93863;-69
2023/06/05 00:55:14;;;;;;;1.70;1.20;;;10.10;64.10;10.00;101080.00;;;;4970289;27;102975;-69
2023/06/05 00:57:40;;;;;;;1.33;0.90;;;10.10;64.50;10.00;101075.00;;;;5007743;27;92878;-69
2023/06/05 01:00:12;;;;;;;2.03;1.17;;;10.10;65.60;10.00;101079.00;;;;4989635;27;106236;-69
2023/06/05 01:02:39;;;;;;;2.20;1.10;;;10.00;65.20;9.90;101083.00;;;;4990084;27;93952;-68
2023/06/05 01:05:06;;;;;;;1.07;1.03;;;9.90;65.50;9.80;101076.00;;;;5008605;27;93422;-69
2023/06/05 01:07:38;;;;;;;2.60;0.97;;;10.90;66.50;9.80;101074.00;;;;4993640;27;101412;-69
2023/06/05 01:10:08;;;;;;;1.70;1.00;;;9.80;66.10;9.70;101078.00;;;;4995794;27;92904;-68
2023/06/05 01:12:45;;;;;;;3.83;1.00;;;9.80;66.40;9.70;101068.00;;;;5011098;27;101293;-68
2023/06/05 01:15:12;;;;;;;1.30;1.20;;;9.70;66.70;9.60;101074.00;;;;5007801;27;93858;-68
2023/06/05 01:17:38;;;;;;;2.97;1.43;;;9.70;67.10;9.60;101083.00;;;;4986665;27;107142;-68
2023/06/05 01:20:09;;;;;;;0.87;0.87;;;9.70;67.70;9.60;101070.00;;;;4994301;27;101919;-68
2023/06/05 01:22:37;;;;;;;1.40;1.30;;;9.70;68.10;9.50;101064.00;;;;4972248;27;94667;-68
2023/06/05 01:25:07;;;;;;;1.83;1.03;;;9.60;68.50;9.50;101069.00;;;;5002075;27;93607;-68
2023/06/05 01:27:55;;;;;;;1.50;0.97;;;9.50;68.80;9.40;101068.00;;;;5002319;27;94415;-68
2023/06/05 01:30:34;;;;;;;1.53;1.10;;;9.60;69.40;9.40;101060.00;;;;5002378;27;93518;-68
2023/06/05 01:33:12;;;;;;;1.27;1.17;;;9.50;69.60;9.30;101064.00;;;;4987343;27;100238;-70
2023/06/05 01:35:39;;;;;;;1.17;1.07;;;9.50;69.90;9.30;101064.00;;;;5008035;27;93349;-68
2023/06/05 01:38:09;;;;;;;0.90;0.90;;;9.40;70.10;9.30;101065.00;;;;5006524;27;93041;-68
2023/06/05 01:40:36;;;;;;;1.20;1.10;;;9.40;70.40;9.30;101065.00;;;;4992601;27;93140;-68
2023/06/05 01:43:05;;;;;;;3.10;1.43;;;9.40;71.00;9.30;101061.00;;;;5007738;27;92866;-68
2023/06/05 01:45:31;;;;;;;0.93;0.90;;;9.40;71.50;9.20;101058.00;;;;5007746;27;92947;-68
2023/06/05 01:47:57;;;;;;;1.03;0.90;;;9.30;71.80;9.20;101051.00;;;;4992878;27;95391;-68
2023/06/05 01:50:24;;;;;;;3.10;1.60;;;9.30;72.20;9.20;101050.00;;;;5004641;27;110797;-68
2023/06/05 01:52:52;;;;;;;1.00;0.90;;;9.20;72.80;9.10;101057.00;;;;5007068;27;94170;-68
2023/06/05 01:55:23;;;;;;;1.57;1.00;;;9.50;73.50;9.10;101053.00;;;;5007028;27;93006;-68
2023/06/05 01:57:50;;;;;;;1.33;1.23;;;9.20;74.10;9.10;101048.00;;;;5008198;27;93070;-68
2023/06/05 02:00:17;;;;;;;1.30;1.07;;;9.20;75.00;9.00;101047.00;;;;5006924;27;94279;-68
2023/06/05 02:02:45;;;;;;;1.87;1.13;;;9.10;75.70;9.00;101047.00;;;;5006486;27;93191;-68
2023/06/05 02:05:12;;;;;;;1.00;0.90;;;9.10;76.40;8.90;101052.00;;;;5008624;27;92981;-68
2023/06/05 02:07:41;;;;;;;1.13;1.00;;;9.00;76.80;8.90;101047.00;;;;5004962;27;93187;-68
2023/06/05 02:10:08;;;;;;;1.93;1.23;;;9.00;77.30;8.90;101046.00;;;;5004891;27;94406;-68
2023/06/05 02:12:34;;;;;;;1.10;0.87;;;8.90;77.60;8.80;101044.00;;;;4974425;27;93881;-68
2023/06/05 02:15:00;;;;;;;1.07;1.03;;;8.90;78.00;8.80;101048.00;;;;5007672;27;93871;-68
2023/06/05 02:17:27;;;;;;;1.40;1.30;;;8.90;78.60;8.80;101041.00;;;;5007303;27;108555;-68
2023/06/05 02:19:53;;;;;;;3.13;1.13;;;8.90;79.00;8.70;101047.00;;;;5008742;27;94361;-68
2023/06/05 02:22:19;;;;;;;2.20;1.33;;;8.80;79.20;8.70;101034.00;;;;5003859;27;122568;-68
2023/06/05 02:24:44;;;;;;;1.40;1.30;;;8.80;79.60;8.70;101045.00;;;;5006948;27;93256;-68
2023/06/05 02:27:10;;;;;;;1.10;1.10;;;8.80;79.90;8.70;101043.00;;;;5006607;27;106954;-68
2023/06/05 02:29:39;;;;;;;1.00;1.00;;;8.70;80.40;8.60;101042.00;;;;5007447;27;93662;-68
2023/06/05 02:32:06;;;;;;;1.57;1.10;;;8.70;81.10;8.60;101034.00;;;;4996555;27;92508;-67
2023/06/05 02:34:32;;;;;;;1.20;1.00;;;8.70;81.30;8.60;101037.00;;;;5008098;27;92947;-68
2023/06/05 02:36:59;;;;;;;0.83;0.83;;;8.60;81.70;8.50;101037.00;;;;5011203;27;92710;-68
2023/06/05 02:39:25;;;;;;;1.67;1.50;;;8.60;82.00;8.50;101038.00;;;;5007026;27;115433;-68
2023/06/05 02:41:52;;;;;;;1.50;0.97;;;8.60;82.50;8.50;101043.00;;;;5008598;27;93333;-67
2023/06/05 02:44:18;;;;;;;0.90;0.90;;;8.60;82.70;8.40;101043.00;;;;4990498;27;94350;-68
2023/06/05 02:46:44;;;;;;;3.27;1.73;;;8.50;83.20;8.40;101043.00;;;;5004021;27;108697;-68
2023/06/05 02:49:10;;;;;;;1.30;1.20;;;8.50;83.90;8.30;101041.00;;;;5006515;27;92805;-68
2023/06/05 02:51:35;;;;;;;1.53;1.40;;;8.40;84.60;8.30;101045.00;;;;5007828;27;93919;-70
2023/06/05 02:54:01;;;;;;;1.30;1.30;;;8.40;85.40;8.30;101038.00;;;;4978802;27;92805;-69
2023/06/05 02:56:27;;;;;;;1.47;1.37;;;8.40;85.90;8.20;101043.00;;;;5009548;27;109625;-69
2023/06/05 02:58:53;;;;;;;1.37;1.23;;;8.30;86.30;8.20;101041.00;;;;5006893;27;93036;-69
2023/06/05 03:01:21;;;;;;;1.00;1.00;;;8.30;86.80;8.20;101042.00;;;;5008347;27;93386;-69
2023/06/05 03:03:48;;;;;;;1.80;1.23;;;8.30;87.10;8.20;101039.00;;;;5005734;27;93937;-69
2023/06/05 03:06:17;;;;;;;2.53;1.30;;;8.30;87.40;8.20;101041.00;;;;5007857;27;93439;-69
2023/06/05 03:08:43;;;;;;;2.70;1.20;;;8.20;87.80;8.10;101039.00;;;;5007582;27;94070;-69
2023/06/05 03:11:09;;;;;;;1.93;1.47;;;8.20;88.50;8.10;101040.00;;;;4992004;27;109018;-69
2023/06/05 03:13:35;;;;;;;1.60;1.50;;;8.20;89.10;8.10;101048.00;;;;5002085;27;99764;-69
2023/06/05 03:16:01;;;;;;;1.63;1.50;;;8.20;90.00;8.10;101049.00;;;;5005526;27;95244;-69
2023/06/05 03:18:30;;;;;;;1.57;1.30;;;8.20;90.60;8.10;101045.00;;;;5005414;27;114160;-69
2023/06/05 03:20:56;;;;;;;0.83;0.83;;;8.20;91.00;8.10;101045.00;;;;5008606;27;93278;-69
2023/06/05 03:23:27;;;;;;;2.00;1.20;;;8.20;91.20;8.10;101039.00;;;;5007300;27;97214;-69
2023/06/05 03:25:54;;;;;;;3.00;1.50;;;8.20;91.30;8.10;101044.00;;;;4996313;27;93064;-69
2023/06/05 03:28:22;;;;;;;1.67;1.57;;;8.20;91.30;8.20;101049.00;;;;4990418;27;94070;-69
2023/06/05 03:30:48;;;;;;;1.40;1.30;;;8.50;91.50;8.20;101050.00;;;;5004125;27;103580;-69
2023/06/05 03:33:15;;;;;;;1.53;1.10;;;8.30;91.50;8.30;101052.00;;;;5011854;27;93028;-69
2023/06/05 03:35:49;;;;;;;1.53;1.43;;;8.30;91.60;8.30;101048.00;;;;5007783;27;93156;-69
2023/06/05 03:38:14;;;;;;;1.80;1.70;;;8.30;91.70;8.30;101048.00;;;;5009622;27;92694;-69
2023/06/05 03:40:46;;;;;;;1.43;1.33;;;8.40;91.70;8.40;101051.00;;;;5009844;27;93042;-69
2023/06/05 03:43:12;;;;;;;1.53;1.43;;;8.50;91.70;8.50;101050.00;;;;5009093;27;110569;-70
2023/06/05 03:45:40;;;;;;;2.17;1.97;;;8.60;91.70;8.60;101042.00;;;;5006363;27;107505;-69
2023/06/05 03:48:06;;;;;;;1.17;1.03;;;8.60;91.70;8.70;101046.00;;;;5004876;27;94112;-69
2023/06/05 03:50:33;;;;;;;1.17;1.03;;;8.70;91.60;8.80;101042.00;;;;5007346;27;112606;-69
2023/06/05 03:53:03;;;;;;;1.53;1.43;;;8.80;91.50;8.90;101043.00;;;;5001918;27;93858;-69
2023/06/05 03:55:41;;;;;;;2.00;1.80;;;8.90;91.50;9.00;101043.00;;;;5008485;27;93012;-69
2023/06/05 03:58:15;;;;;;;1.27;1.17;;;9.00;91.50;9.10;101042.00;;;;5008856;27;93142;-69
2023/06/05 04:00:42;;;;;;;1.30;1.20;;;9.10;91.70;9.20;101042.00;;;;5010396;27;93386;-69
2023/06/05 04:03:09;;;;;;;1.47;1.37;;;9.20;91.70;9.30;101045.00;;;;5007588;27;93180;-69
2023/06/05 04:05:35;;;;;;;2.10;1.20;;;9.30;91.80;9.50;101053.00;;;;5005858;27;92859;-69
2023/06/05 04:08:02;;;;;;;1.67;1.30;;;9.50;91.80;9.60;101046.00;;;;5005502;27;117721;-69
2023/06/05 04:10:28;;;;;;;2.17;1.53;;;9.50;91.80;9.70;101058.00;;;;5006294;27;93610;-70
2023/06/05 04:12:54;;;;;;;1.73;1.47;;;9.70;92.20;9.80;101049.00;;;;4980371;27;98035;-69
2023/06/05 04:15:21;;;;;;;1.20;1.10;;;9.80;91.80;10.00;101052.00;;;;4990631;27;93328;-70
2023/06/05 04:17:47;;;;;;;1.00;1.00;;;10.00;91.80;10.10;101056.00;;;;4989145;27;105798;-69
2023/06/05 04:20:14;;;;;;;1.63;1.27;;;10.10;91.70;10.30;101051.00;;;;5008960;27;110018;-69
2023/06/05 04:22:43;;;;;;;2.40;1.30;;;10.30;91.70;10.50;101049.00;;;;5004838;27;92846;-69
2023/06/05 04:25:12;;;;;;;2.23;1.37;;;10.50;91.60;10.60;101044.00;;;;5005038;27;99294;-69
2023/06/05 04:27:40;;;;;;;1.43;1.20;;;10.60;91.40;10.80;101054.00;;;;5007239;27;93737;-69
2023/06/05 04:30:07;;;;;;;1.43;1.10;;;10.70;91.20;11.00;101050.00;;;;5007494;27;93690;-69
2023/06/05 04:32:36;;;;;;;1.30;1.20;;;10.90;91.10;11.10;101064.00;;;;5006432;27;93017;-69
2023/06/05 04:35:06;;;;;;;2.40;1.20;;;11.10;90.90;11.30;101052.00;;;;5002645;27;92136;-69
2023/06/05 04:37:32;;;;;;;1.40;0.97;;;11.30;90.90;11.40;101055.00;;;;5001715;27;94239;-69
2023/06/05 04:39:58;;;;;;;1.93;1.03;;;11.40;90.70;11.60;101059.00;;;;5003080;27;121627;-69
2023/06/05 04:42:25;;;;;;;1.20;1.17;;;11.50;90.60;11.70;101060.00;;;;5001186;27;93976;-69
2023/06/05 04:45:03;;;;;;;1.53;1.30;;;11.60;90.50;11.80;101061.00;;;;5004862;27;95317;-69
2023/06/05 04:47:29;;;;;;;1.53;1.20;;;11.70;90.30;11.80;101053.00;;;;4984982;27;93031;-69
2023/06/05 04:49:58;;;;;;;2.20;1.37;;;11.80;90.20;11.90;101057.00;;;;5008244;27;93484;-69
2023/06/05 04:52:23;;;;;;;1.90;1.60;;;11.90;90.00;12.10;101055.00;;;;5003940;27;92926;-69
2023/06/05 04:54:49;;;;;;;1.00;0.97;;;12.00;89.80;12.10;101056.00;;;;5003061;27;109277;-69
2023/06/05 04:57:16;;;;;;;1.17;1.07;;;12.10;89.60;12.20;101056.00;;;;5003272;27;123423;-69
2023/06/05 04:59:43;;;;;;;1.33;1.20;;;12.20;89.20;12.30;101060.00;;;;5005140;27;93592;-69
2023/06/05 05:02:08;;;;;;;1.40;1.13;;;12.20;89.00;12.40;101058.00;;;;5003192;27;93098;-69
2023/06/05 05:04:35;;;;;;;2.17;1.33;;;12.40;88.90;12.60;101053.00;;;;5005133;27;93129;-69
2023/06/05 05:07:01;;;;;;;4.57;1.47;;;12.50;88.80;12.70;101057.00;;;;5000255;27;95295;-69
2023/06/05 05:09:31;;;;;;;1.60;1.50;;;12.60;88.50;13.00;101058.00;;;;5004499;27;122331;-69
2023/06/05 05:11:57;;;;;;;1.60;1.10;;;12.80;88.30;13.20;101059.00;;;;5008072;27;92974;-69
2023/06/05 05:14:44;;;;;;;1.33;1.00;;;13.10;88.00;13.50;101074.00;;;;5004496;27;109328;-69
2023/06/05 05:17:10;;;;;;;1.17;0.97;;;13.30;87.40;13.90;101060.00;;;;5002722;27;93357;-70
2023/06/05 05:19:40;;;;;;;1.20;1.10;;;13.60;86.70;14.20;101069.00;;;;4986254;27;95080;-69
2023/06/05 05:22:06;;;;;;;1.73;1.50;;;14.00;86.20;14.50;101064.00;;;;5004877;27;95422;-69
2023/06/05 05:24:32;;;;;;;1.90;1.37;;;14.30;85.40;14.80;101070.00;;;;5006099;27;92800;-67
2023/06/05 05:26:58;;;;;;;1.70;1.07;;;14.60;83.90;15.10;101063.00;;;;5000769;27;122299;-67
2023/06/05 05:29:23;;;;;;;2.40;1.33;;;14.80;82.60;15.30;101065.00;;;;5004298;27;113215;-67
2023/06/05 05:31:50;;;;;;;3.05;1.30;;;15.10;81.40;15.60;101064.00;;;;5003090;27;105039;-67
2023/06/05 05:34:17;;;;;;;1.50;1.23;;;15.30;78.80;15.80;101070.00;;;;5010122;27;92872;-68
2023/06/05 05:36:42;;;;;;;1.70;1.35;;;15.70;77.00;16.00;101070.00;;;;4989484;27;92935;-67
2023/06/05 05:39:09;;;;;;;1.63;1.52;;;15.80;76.40;16.20;101070.00;;;;5008449;27;93264;-69
2023/06/05 05:41:35;;;;;;;2.10;1.10;;;16.00;75.40;16.50;101074.00;;;;5009248;27;92796;-67
2023/06/05 05:44:01;;;;;;;2.08;0.85;;;16.30;73.90;16.70;101071.00;;;;5006413;27;92770;-68
2023/06/05 05:46:27;;;;;;;1.30;0.98;;;16.50;73.70;17.00;101077.00;;;;4987311;27;109883;-69
2023/06/05 05:48:54;;;;;;;1.73;1.55;;;16.70;72.80;17.30;101072.00;;;;5007213;27;122328;-67
2023/06/05 05:51:21;;;;;;;1.52;1.25;;;17.00;71.00;17.50;101080.00;;;;5006523;27;92943;-67
2023/06/05 05:53:46;;;;;;;1.75;1.30;;;17.30;70.20;17.70;101078.00;;;;5005140;27;94770;-67
2023/06/05 05:56:12;;;;;;;2.47;1.00;;;17.50;69.50;18.00;101076.00;;;;5009733;27;114976;-67
2023/06/05 05:58:38;;;;;;;0.68;0.68;;;17.80;68.70;18.30;101079.00;;;;5005142;27;121857;-67
2023/06/05 06:01:03;;;;;;;1.60;1.48;;;18.10;67.40;18.60;101090.00;;;;5008689;27;110798;-66
2023/06/05 06:03:34;;;;;;;1.50;1.05;;;18.30;65.10;18.80;101080.00;;;;5008400;27;108522;-67
2023/06/05 06:06:00;;;;;;;1.60;0.70;;;18.50;63.30;19.00;101082.00;;;;5008755;27;93987;-66
2023/06/05 06:08:26;;;;;;;1.10;0.90;;;18.80;62.10;19.30;101080.00;;;;5011575;27;93017;-68
2023/06/05 06:10:52;;;;;;;1.75;1.17;;;19.00;61.70;19.50;101082.00;;;;5011478;27;92977;-67
2023/06/05 06:13:18;;;;;;;0.93;0.80;;;19.30;61.00;19.90;101087.00;;;;5008290;27;92082;-66
2023/06/05 06:15:44;;;;;;;2.00;1.10;;;19.60;59.60;20.10;101083.00;;;;5008507;27;94081;-66
2023/06/05 06:18:09;;;;;;;1.05;0.70;;;19.80;59.00;20.30;101091.00;;;;5006762;27;93357;-66
2023/06/05 06:20:35;;;;;;;0.98;0.60;;;20.00;58.30;20.50;101087.00;;;;5001369;27;110059;-65
2023/06/05 06:23:02;;;;;;;0.77;0.70;;;20.30;57.60;20.70;101088.00;;;;5008015;27;92904;-66
2023/06/05 06:25:31;;;;;;;1.17;0.85;;;20.50;57.00;20.90;101082.00;;;;5005655;27;93526;-68
2023/06/05 06:27:58;;;;;;;1.08;1.00;;;20.70;55.70;21.10;101085.00;;;;5002420;27;95793;-67
2023/06/05 06:30:25;;;;;;;0.63;0.50;;;20.90;54.70;21.30;101087.00;;;;5008777;27;92776;-67
2023/06/05 06:32:50;;;;;;;1.48;0.95;;;21.10;54.20;21.40;101083.00;;;;5008644;27;92868;-66
2023/06/05 06:35:16;;;;;;;1.40;0.80;;;21.20;53.20;21.60;101082.00;;;;5009952;27;122990;-69
2023/06/05 06:37:42;;;;;;;0.68;0.50;;;21.40;53.10;21.80;101086.00;;;;5012637;27;92637;-66
2023/06/05 06:40:09;;;;;;;1.13;0.65;;;21.60;52.80;22.00;101085.00;;;;5011245;27;110182;-67
2023/06/05 06:42:35;;;;;;;0.70;0.70;;;21.80;49.90;21.90;101086.00;;;;5015406;27;92987;-65
2023/06/05 06:45:01;;;;;;;5.28;0.75;;;21.70;49.20;21.80;101091.00;;;;5006428;27;94276;-66
2023/06/05 06:47:27;;;;;;;0.93;0.73;;;21.60;49.20;21.70;101090.00;;;;5009183;27;112086;-66
2023/06/05 06:49:53;;;;;;;0.85;0.60;;;21.60;49.40;21.60;101095.00;;;;5005701;27;99045;-67
2023/06/05 06:52:20;;;;;;;0.40;0.40;;;21.50;49.60;21.70;101087.00;;;;5008876;27;92977;-66
2023/06/05 06:54:48;;;;;;;2.00;1.20;;;21.50;49.90;21.70;101102.00;;;;5004162;27;94146;-66
2023/06/05 06:57:14;;;;;;;1.88;0.60;;;21.60;49.60;21.80;101100.00;;;;5002818;27;123667;-67
2023/06/05 06:59:40;;;;;;;0.82;0.77;;;21.60;49.40;21.80;101096.00;;;;5006278;27;92919;-67
2023/06/05 07:02:17;;;;;;;2.42;1.17;;;21.60;49.40;22.00;101095.00;;;;5007736;27;92306;-69
2023/06/05 07:04:44;;;;;;;0.50;0.50;;;21.70;49.50;22.30;101095.00;;;;4994161;27;107505;-68
2023/06/05 07:07:12;;;;;;;1.58;0.95;;;21.90;49.30;22.50;101100.00;;;;4991333;27;92979;-67
2023/06/05 07:09:39;;;;;;;2.63;0.73;;;22.20;48.70;22.80;101101.00;;;;5003546;27;93927;-68
2023/06/05 07:12:07;;;;;;;1.50;1.00;;;22.50;48.60;23.10;101100.00;;;;5009618;27;92881;-68
2023/06/05 07:14:33;;;;;;;1.55;0.70;;;22.80;48.40;23.50;101104.00;;;;5005832;27;100229;-69
2023/06/05 07:17:00;;;;;;;1.05;0.95;;;23.10;47.00;23.80;101106.00;;;;5004399;27;93963;-68
2023/06/05 07:19:30;;;;;;;1.25;0.95;;;23.40;46.60;24.10;101103.00;;;;4991770;27;92926;-69
2023/06/05 07:21:57;;;;;;;0.88;0.57;;;23.70;46.00;24.30;101099.00;;;;5004140;27;93150;-69
2023/06/05 07:24:28;;;;;;;1.38;0.90;;;24.00;45.70;24.60;101105.00;;;;5003798;27;92960;-68
2023/06/05 07:26:56;;;;;;;1.38;0.73;;;24.30;45.60;24.80;101094.00;;;;5004280;27;93952;-68
2023/06/05 07:29:23;;;;;;;1.30;0.98;;;24.50;44.80;25.00;101090.00;;;;5006577;27;92809;-69
2023/06/05 07:31:51;;;;;;;0.95;0.73;;;24.70;44.20;25.20;101093.00;;;;5007799;27;92816;-67
2023/06/05 07:34:18;;;;;;;1.52;0.68;;;24.90;43.50;25.50;101095.00;;;;5005225;27;94377;-69
2023/06/05 07:36:46;;;;;;;0.82;0.80;;;25.00;43.20;25.70;101095.00;;;;5003459;27;109874;-68
2023/06/05 07:39:13;;;;;;;1.33;0.68;;;25.40;42.10;25.80;101106.00;;;;5005463;27;93033;-69
2023/06/05 07:41:39;;;;;;;1.23;1.00;;;25.50;41.90;26.00;101104.00;;;;5003917;27;100512;-68
2023/06/05 07:44:14;;;;;;;2.50;0.80;;;25.70;41.80;26.10;101094.00;;;;5005110;27;93385;-69
2023/06/05 07:46:45;;;;;;;1.83;0.80;;;25.80;40.90;26.20;101101.00;;;;4991211;27;92854;-69
2023/06/05 07:49:10;;;;;;;0.85;0.55;;;25.90;40.40;26.40;101093.00;;;;5004147;27;93023;-68
2023/06/05 07:51:36;;;;;;;2.22;0.63;;;26.10;40.40;26.60;101099.00;;;;5006620;27;107839;-69
2023/06/05 07:54:11;;;;;;;2.28;0.68;;;26.30;39.70;26.70;101105.00;;;;5005415;27;94059;-68
2023/06/05 07:56:38;;;;;;;0.75;0.55;;;26.40;38.80;26.80;101088.00;;;;5006320;27;93769;-68
2023/06/05 07:59:05;;;;;;;1.95;0.82;;;26.50;38.60;26.90;101082.00;;;;5002178;27;94049;-68
2023/06/05 08:01:36;;;;;;;1.00;0.93;;;26.60;37.90;27.00;101092.00;;;;5004710;27;92915;-68
2023/06/05 08:04:06;;;;;;;1.63;0.80;;;26.70;37.40;27.00;101088.00;;;;5001630;27;93962;-70
2023/06/05 08:06:32;;;;;;;5.50;1.02;;;26.80;36.80;27.10;101086.00;;;;4987903;27;93193;-69
2023/06/05 08:09:01;;;;;;;1.20;0.88;;;26.80;36.50;27.20;101081.00;;;;5003309;27;110599;-70
2023/06/05 08:11:28;;;;;;;1.40;0.60;;;26.90;36.30;27.30;101086.00;;;;5002421;27;93067;-70
2023/06/05 08:13:54;;;;;;;2.17;0.70;;;27.00;36.30;27.30;101088.00;;;;5007243;27;93281;-69
2023/06/05 08:16:20;;;;;;;0.75;0.70;;;27.10;35.80;27.30;101090.00;;;;5005025;27;93823;-69
2023/06/05 08:18:46;;;;;;;3.95;1.08;;;27.10;36.40;27.40;101094.00;;;;5005709;27;97846;-69
2023/06/05 08:21:13;;;;;;;1.00;0.45;;;27.20;35.80;27.30;101096.00;;;;5007037;27;109296;-68
2023/06/05 08:23:38;;;;;;;0.85;0.55;;;27.20;34.50;27.30;101103.00;;;;5005431;27;108267;-69
2023/06/05 08:26:10;;;;;;;0.45;0.43;;;27.10;34.40;27.30;101099.00;;;;5011030;27;93157;-70
2023/06/05 08:28:40;;;;;;;3.20;0.60;;;27.00;34.10;27.20;101099.00;;;;5009786;27;92989;-70
2023/06/05 08:31:10;;;;;;;1.23;0.60;;;27.00;34.80;27.30;101093.00;;;;5010653;27;94590;-70
2023/06/05 08:33:37;;;;;;;1.33;0.70;;;27.00;33.90;27.20;101092.00;;;;5011143;27;94253;-69
2023/06/05 08:36:05;;;;;;;1.30;0.70;;;27.00;33.60;27.30;101087.00;;;;5005704;27;93080;-71
2023/06/05 08:38:32;;;;;;;2.22;0.90;;;27.00;33.40;27.20;101094.00;;;;5002529;27;93051;-70
2023/06/05 08:41:05;;;;;;;3.30;0.60;;;27.00;33.40;27.20;101091.00;;;;5003904;27;92140;-69
2023/06/05 08:43:31;;;;;;;0.77;0.50;;;27.00;33.50;27.20;101086.00;;;;4992889;27;94395;-69
2023/06/05 08:45:57;;;;;;;1.70;0.80;;;26.90;33.50;27.30;101079.00;;;;5007425;27;122777;-69
2023/06/05 08:48:25;;;;;;;1.15;0.70;;;27.00;33.70;27.50;101084.00;;;;5008087;27;93856;-70
2023/06/05 08:50:51;;;;;;;0.60;0.60;;;27.10;33.70;27.60;101068.00;;;;4990847;27;93048;-68
2023/06/05 08:53:20;;;;;;;5.18;0.70;;;27.30;33.70;27.80;101079.00;;;;5007624;27;93438;-70
2023/06/05 08:55:51;;;;;;;0.52;0.52;;;27.40;33.20;28.00;101067.00;;;;4995759;27;92974;-70
2023/06/05 08:58:17;;;;;;;3.95;1.08;;;27.60;33.00;28.20;101074.00;;;;4990717;27;92984;-69
2023/06/05 09:00:43;;;;;;;0.65;0.57;;;27.80;32.50;28.30;101076.00;;;;4993697;27;107825;-70
2023/06/05 09:03:14;;;;;;;2.30;0.70;;;27.90;32.40;28.50;101071.00;;;;4991811;27;122104;-70
2023/06/05 09:05:40;;;;;;;1.70;0.98;;;28.10;32.70;28.80;101072.00;;;;5007611;27;92862;-70
2023/06/05 09:08:06;;;;;;;0.45;0.45;;;28.30;32.20;29.00;101064.00;;;;5005519;27;110197;-71
2023/06/05 09:10:32;;;;;;;1.67;0.85;;;28.50;31.90;29.20;101065.00;;;;4991957;27;93145;-69
2023/06/05 09:13:01;;;;;;;1.00;0.55;;;28.80;31.60;29.30;101073.00;;;;5005151;27;123599;-69
2023/06/05 09:15:33;;;;;;;1.90;1.00;;;28.90;31.40;29.30;101074.00;;;;5009643;27;117481;-70
2023/06/05 09:18:11;;;;;;;0.52;0.50;;;28.90;30.50;29.30;101069.00;;;;5009843;27;92998;-69
2023/06/05 09:20:39;;;;;;;0.50;0.50;;;29.00;30.90;29.40;101068.00;;;;5008381;27;92949;-68
2023/06/05 09:23:24;;;;;;;1.30;0.70;;;29.00;30.90;29.60;101070.00;;;;5006241;27;93282;-69
2023/06/05 09:25:50;;;;;;;0.60;0.60;;;29.20;29.60;29.40;101070.00;;;;5009966;27;93122;-69
2023/06/05 09:28:17;;;;;;;0.50;0.50;;;29.10;29.20;29.30;101063.00;;;;5006631;27;92882;-69
2023/06/05 09:30:58;;;;;;;0.68;0.40;;;28.90;29.50;29.20;101065.00;;;;5007608;27;92173;-70
2023/06/05 09:33:27;;;;;;;0.63;0.52;;;28.90;30.00;29.20;101070.00;;;;5008988;27;94077;-68
2023/06/05 09:36:05;;;;;;;1.42;0.68;;;28.90;30.10;29.20;101058.00;;;;4994938;27;94334;-69
2023/06/05 09:38:31;;;;;;;2.58;0.70;;;28.90;29.80;29.20;101054.00;;;;5009244;27;93934;-71
2023/06/05 09:41:11;;;;;;;0.20;0.20;;;28.80;29.40;29.20;101051.00;;;;4990920;27;92877;-70
2023/06/05 09:43:38;;;;;;;1.02;0.65;;;28.90;29.10;29.30;101057.00;;;;4998369;27;93182;-70
2023/06/05 09:46:08;;;;;;;1.33;0.65;;;28.90;29.00;29.40;101058.00;;;;4974135;27;123072;-71
2023/06/05 09:48:35;;;;;;;1.38;0.63;;;29.00;29.10;29.60;101057.00;;;;5010750;27;92781;-70
2023/06/05 09:51:18;;;;;;;0.88;0.70;;;29.10;28.70;29.70;101049.00;;;;5011392;27;92923;-70
2023/06/05 09:53:47;;;;;;;0.57;0.57;;;29.20;28.70;29.80;101047.00;;;;4986294;27;93121;-71
2023/06/05 09:56:21;;;;;;;9.40;5.32;;;29.30;28.90;29.90;101043.00;;;;4993958;27;92446;-71
2023/06/05 09:58:51;;;;;;;1.35;0.90;;;29.40;28.60;29.90;101042.00;;;;4993993;27;93048;-70
2023/06/05 10:01:27;;;;;;;1.77;0.45;;;29.50;28.70;30.10;101042.00;;;;5010741;27;92936;-71
2023/06/05 10:04:00;;;;;;;2.42;1.15;;;29.60;28.70;30.20;101043.00;;;;5006974;27;93747;-72
2023/06/05 10:06:28;;;;;;;2.30;0.77;;;29.80;28.40;30.50;101039.00;;;;5004404;27;93891;-69
2023/06/05 10:08:57;;;;;;;1.13;0.57;;;29.90;28.20;30.50;101034.00;;;;5006237;27;101020;-69
2023/06/05 10:11:27;;;;;;;1.40;0.50;;;30.00;28.00;30.70;101036.00;;;;5005582;27;92824;-68
2023/06/05 10:13:54;;;;;;;0.70;0.43;;;30.10;28.10;30.80;101020.00;;;;5010037;27;93084;-71
2023/06/05 10:16:21;;;;;;;0.82;0.55;;;30.30;28.00;30.90;101027.00;;;;5006487;27;115204;-68
2023/06/05 10:18:48;;;;;;;1.67;0.55;;;30.30;27.90;31.00;101030.00;;;;5012973;27;92905;-71
2023/06/05 10:21:19;;;;;;;1.38;0.90;;;30.40;28.20;31.30;101028.00;;;;5009075;27;92006;-70
2023/06/05 10:24:06;;;;;;;1.00;0.50;;;30.60;28.20;31.50;101021.00;;;;5006432;27;94074;-71
2023/06/05 10:27:12;;;;;;;1.05;0.70;;;30.90;27.70;31.80;101020.00;;;;4988691;27;93089;-70
2023/06/05 10:30:09;;;;;;;0.43;0.43;;;31.10;27.60;31.90;101017.00;;;;5010206;27;94861;-70
2023/06/05 10:33:12;;;;;;;1.17;0.73;;;31.20;26.70;31.90;101018.00;;;;4991271;27;101403;-70
2023/06/05 10:36:10;;;;;;;1.42;0.95;;;31.20;27.20;32.20;101012.00;;;;5008788;27;92804;-70
2023/06/05 10:38:38;;;;;;;1.45;0.93;;;31.40;27.10;32.30;101015.00;;;;5006922;27;92760;-70
2023/06/05 10:41:04;;;;;;;2.10;0.55;;;31.60;27.00;32.40;101009.00;;;;4996294;27;93085;-70
2023/06/05 10:43:36;;;;;;;2.03;1.20;;;31.70;27.00;32.60;101015.00;;;;5008303;27;92991;-69
2023/06/05 10:46:31;;;;;;;1.00;0.57;;;31.90;26.90;32.80;101009.00;;;;5009072;27;93588;-71
2023/06/05 10:49:07;;;;;;;0.63;0.60;;;32.10;26.90;33.00;101013.00;;;;4992952;27;95010;-71
2023/06/05 10:51:46;;;;;;;1.15;0.88;;;32.20;26.70;33.10;101015.00;;;;5007100;27;93066;-70
2023/06/05 10:54:22;;;;;;;1.75;1.05;;;32.60;26.70;33.20;101006.00;;;;5007704;27;93059;-70
2023/06/05 10:56:59;;;;;;;1.20;0.93;;;32.50;26.40;33.30;101006.00;;;;5007634;27;109139;-70